sensor_id;sensor_type;location;lat;lon;timestamp;temperature;humidity
54264;DHT22;40178;53.042;6.406;2023-08-30T00:00:10;12.50;99.90
54264;DHT22;40178;53.042;6.406;2023-08-30T00:02:36;12.50;99.90
54264;DHT22;40178;53.042;6.406;2023-08-30T00:05:05;12.50;99.90
54264;DHT22;40178;53.042;6.406;2023-08-30T00:07:30;12.50;99.90
54264;DHT22;40178;53.042;6.406;2023-08-30T00:09:58;12.50;99.90
54264;DHT22;40178;53.042;6.406;2023-08-30T00:12:24;12.40;99.90
54264;DHT22;40178;53.042;6.406;2023-08-30T00:14:51;12.40;99.90
54264;DHT22;40178;53.042;6.406;2023-08-30T00:17:17;12.40;99.90
54264;DHT22;40178;53.042;6.406;2023-08-30T00:19:42;12.30;99.90
54264;DHT22;40178;53.042;6.406;2023-08-30T00:22:09;12.30;99.90
54264;DHT22;40178;53.042;6.406;2023-08-30T00:24:34;12.20;99.90
54264;DHT22;40178;53.042;6.406;2023-08-30T00:27:01;12.20;99.90
54264;DHT22;40178;53.042;6.406;2023-08-30T00:29:28;12.20;99.90
54264;DHT22;40178;53.042;6.406;2023-08-30T00:31:54;12.20;99.90
54264;DHT22;40178;53.042;6.406;2023-08-30T00:34:19;12.20;99.90
54264;DHT22;40178;53.042;6.406;2023-08-30T00:36:45;12.10;99.90
54264;DHT22;40178;53.042;6.406;2023-08-30T00:39:11;12.10;99.90
54264;DHT22;40178;53.042;6.406;2023-08-30T00:41:36;12.10;99.90
54264;DHT22;40178;53.042;6.406;2023-08-30T00:44:02;12.10;99.90
54264;DHT22;40178;53.042;6.406;2023-08-30T00:46:28;12.20;99.90
54264;DHT22;40178;53.042;6.406;2023-08-30T00:48:54;12.10;99.90
54264;DHT22;40178;53.042;6.406;2023-08-30T00:51:20;12.20;99.90
54264;DHT22;40178;53.042;6.406;2023-08-30T00:53:47;12.10;99.90
54264;DHT22;40178;53.042;6.406;2023-08-30T00:56:13;12.10;99.90
54264;DHT22;40178;53.042;6.406;2023-08-30T00:58:39;12.10;99.90
54264;DHT22;40178;53.042;6.406;2023-08-30T01:01:05;12.10;99.90
54264;DHT22;40178;53.042;6.406;2023-08-30T01:03:34;12.10;99.90
54264;DHT22;40178;53.042;6.406;2023-08-30T01:06:00;12.10;99.90
54264;DHT22;40178;53.042;6.406;2023-08-30T01:08:26;12.00;99.90
54264;DHT22;40178;53.042;6.406;2023-08-30T01:11:30;11.90;99.90
54264;DHT22;40178;53.042;6.406;2023-08-30T01:14:04;11.90;99.90
54264;DHT22;40178;53.042;6.406;2023-08-30T01:16:31;11.90;99.90
54264;DHT22;40178;53.042;6.406;2023-08-30T01:18:59;11.90;99.90
54264;DHT22;40178;53.042;6.406;2023-08-30T01:24:55;11.70;99.90
54264;DHT22;40178;53.042;6.406;2023-08-30T01:27:23;11.70;99.90
54264;DHT22;40178;53.042;6.406;2023-08-30T01:29:54;11.70;99.90
54264;DHT22;40178;53.042;6.406;2023-08-30T01:32:22;11.70;99.90
54264;DHT22;40178;53.042;6.406;2023-08-30T01:34:51;11.70;99.90
54264;DHT22;40178;53.042;6.406;2023-08-30T01:37:17;11.60;99.90
54264;DHT22;40178;53.042;6.406;2023-08-30T01:39:43;11.70;99.90
54264;DHT22;40178;53.042;6.406;2023-08-30T01:42:10;11.70;99.90
54264;DHT22;40178;53.042;6.406;2023-08-30T01:44:38;11.70;99.90
54264;DHT22;40178;53.042;6.406;2023-08-30T01:47:06;11.80;99.90
54264;DHT22;40178;53.042;6.406;2023-08-30T01:49:33;11.80;99.90
54264;DHT22;40178;53.042;6.406;2023-08-30T01:51:59;11.80;99.90
54264;DHT22;40178;53.042;6.406;2023-08-30T01:54:25;11.80;99.90
54264;DHT22;40178;53.042;6.406;2023-08-30T01:56:52;11.90;99.90
54264;DHT22;40178;53.042;6.406;2023-08-30T01:59:18;11.90;99.90
54264;DHT22;40178;53.042;6.406;2023-08-30T02:01:44;11.90;99.90
54264;DHT22;40178;53.042;6.406;2023-08-30T02:04:09;12.00;99.90
54264;DHT22;40178;53.042;6.406;2023-08-30T02:07:03;12.00;99.90
54264;DHT22;40178;53.042;6.406;2023-08-30T02:12:16;12.10;99.90
54264;DHT22;40178;53.042;6.406;2023-08-30T02:14:49;12.20;99.90
54264;DHT22;40178;53.042;6.406;2023-08-30T02:17:15;12.30;99.90
54264;DHT22;40178;53.042;6.406;2023-08-30T02:19:45;12.30;99.90
54264;DHT22;40178;53.042;6.406;2023-08-30T02:22:11;12.30;99.90
54264;DHT22;40178;53.042;6.406;2023-08-30T02:24:37;12.20;99.90
54264;DHT22;40178;53.042;6.406;2023-08-30T02:27:03;12.30;99.90
54264;DHT22;40178;53.042;6.406;2023-08-30T02:29:29;12.30;99.90
54264;DHT22;40178;53.042;6.406;2023-08-30T02:31:54;12.30;99.90
54264;DHT22;40178;53.042;6.406;2023-08-30T02:34:20;12.30;99.90
54264;DHT22;40178;53.042;6.406;2023-08-30T02:36:46;12.30;99.90
54264;DHT22;40178;53.042;6.406;2023-08-30T02:39:13;12.40;99.90
54264;DHT22;40178;53.042;6.406;2023-08-30T02:41:39;12.30;99.90
54264;DHT22;40178;53.042;6.406;2023-08-30T02:44:07;12.30;99.90
54264;DHT22;40178;53.042;6.406;2023-08-30T02:46:33;12.20;99.90
54264;DHT22;40178;53.042;6.406;2023-08-30T02:48:59;12.20;99.90
54264;DHT22;40178;53.042;6.406;2023-08-30T02:51:24;12.10;99.90
54264;DHT22;40178;53.042;6.406;2023-08-30T02:53:50;12.10;99.90
54264;DHT22;40178;53.042;6.406;2023-08-30T02:56:15;12.00;99.90
54264;DHT22;40178;53.042;6.406;2023-08-30T02:58:41;12.00;99.90
54264;DHT22;40178;53.042;6.406;2023-08-30T03:01:07;11.90;99.90
54264;DHT22;40178;53.042;6.406;2023-08-30T03:03:33;11.80;99.90
54264;DHT22;40178;53.042;6.406;2023-08-30T03:05:58;11.80;99.90
54264;DHT22;40178;53.042;6.406;2023-08-30T03:08:24;11.70;99.90
54264;DHT22;40178;53.042;6.406;2023-08-30T03:10:49;11.60;99.90
54264;DHT22;40178;53.042;6.406;2023-08-30T03:13:15;11.50;99.90
54264;DHT22;40178;53.042;6.406;2023-08-30T03:15:41;11.50;99.90
54264;DHT22;40178;53.042;6.406;2023-08-30T03:18:06;11.40;99.90
54264;DHT22;40178;53.042;6.406;2023-08-30T03:20:32;11.30;99.90
54264;DHT22;40178;53.042;6.406;2023-08-30T03:22:58;11.20;99.90
54264;DHT22;40178;53.042;6.406;2023-08-30T03:25:23;11.20;99.90
54264;DHT22;40178;53.042;6.406;2023-08-30T03:27:49;11.20;99.90
54264;DHT22;40178;53.042;6.406;2023-08-30T03:30:15;11.10;99.90
54264;DHT22;40178;53.042;6.406;2023-08-30T03:32:40;11.00;99.90
54264;DHT22;40178;53.042;6.406;2023-08-30T03:35:06;10.90;99.90
54264;DHT22;40178;53.042;6.406;2023-08-30T03:37:33;10.90;99.90
54264;DHT22;40178;53.042;6.406;2023-08-30T03:39:59;10.90;99.90
54264;DHT22;40178;53.042;6.406;2023-08-30T03:42:24;10.80;99.90
54264;DHT22;40178;53.042;6.406;2023-08-30T03:44:50;10.80;99.90
54264;DHT22;40178;53.042;6.406;2023-08-30T03:47:15;10.80;99.90
54264;DHT22;40178;53.042;6.406;2023-08-30T03:49:41;10.80;99.90
54264;DHT22;40178;53.042;6.406;2023-08-30T03:52:07;10.80;99.90
54264;DHT22;40178;53.042;6.406;2023-08-30T03:54:32;10.80;99.90
54264;DHT22;40178;53.042;6.406;2023-08-30T03:56:59;10.90;99.90
54264;DHT22;40178;53.042;6.406;2023-08-30T03:59:24;11.00;99.90
54264;DHT22;40178;53.042;6.406;2023-08-30T04:01:52;11.00;99.90
54264;DHT22;40178;53.042;6.406;2023-08-30T04:04:18;11.10;99.90
54264;DHT22;40178;53.042;6.406;2023-08-30T04:06:44;11.20;99.90
54264;DHT22;40178;53.042;6.406;2023-08-30T04:09:09;11.20;99.90
54264;DHT22;40178;53.042;6.406;2023-08-30T04:11:35;11.30;99.90
54264;DHT22;40178;53.042;6.406;2023-08-30T04:14:01;11.40;99.90
54264;DHT22;40178;53.042;6.406;2023-08-30T04:16:27;11.40;99.90
54264;DHT22;40178;53.042;6.406;2023-08-30T04:18:54;11.50;99.90
54264;DHT22;40178;53.042;6.406;2023-08-30T04:21:19;11.60;99.90
54264;DHT22;40178;53.042;6.406;2023-08-30T04:23:45;11.60;99.90
54264;DHT22;40178;53.042;6.406;2023-08-30T04:26:10;11.60;99.90
54264;DHT22;40178;53.042;6.406;2023-08-30T04:28:36;11.70;99.90
54264;DHT22;40178;53.042;6.406;2023-08-30T04:31:02;11.70;99.90
54264;DHT22;40178;53.042;6.406;2023-08-30T04:33:27;11.70;99.90
54264;DHT22;40178;53.042;6.406;2023-08-30T04:35:54;11.70;99.90
54264;DHT22;40178;53.042;6.406;2023-08-30T04:38:20;11.80;99.90
54264;DHT22;40178;53.042;6.406;2023-08-30T04:40:47;11.90;99.90
54264;DHT22;40178;53.042;6.406;2023-08-30T04:43:12;11.90;99.90
54264;DHT22;40178;53.042;6.406;2023-08-30T04:45:38;12.00;99.90
54264;DHT22;40178;53.042;6.406;2023-08-30T04:48:04;12.00;99.90
54264;DHT22;40178;53.042;6.406;2023-08-30T04:50:30;12.00;99.90
54264;DHT22;40178;53.042;6.406;2023-08-30T04:52:57;12.00;99.90
54264;DHT22;40178;53.042;6.406;2023-08-30T04:55:27;12.00;99.90
54264;DHT22;40178;53.042;6.406;2023-08-30T04:57:53;12.00;99.90
54264;DHT22;40178;53.042;6.406;2023-08-30T05:00:19;12.00;99.90
54264;DHT22;40178;53.042;6.406;2023-08-30T05:02:45;12.00;99.90
54264;DHT22;40178;53.042;6.406;2023-08-30T05:05:13;12.10;99.90
54264;DHT22;40178;53.042;6.406;2023-08-30T05:07:39;12.10;99.90
54264;DHT22;40178;53.042;6.406;2023-08-30T05:10:05;12.10;99.90
54264;DHT22;40178;53.042;6.406;2023-08-30T05:12:33;12.10;99.90
54264;DHT22;40178;53.042;6.406;2023-08-30T05:14:59;12.10;99.90
54264;DHT22;40178;53.042;6.406;2023-08-30T05:17:24;12.20;99.90
54264;DHT22;40178;53.042;6.406;2023-08-30T05:19:50;12.20;99.90
54264;DHT22;40178;53.042;6.406;2023-08-30T05:22:16;12.20;99.90
54264;DHT22;40178;53.042;6.406;2023-08-30T05:24:41;12.30;99.90
54264;DHT22;40178;53.042;6.406;2023-08-30T05:27:07;12.30;99.90
54264;DHT22;40178;53.042;6.406;2023-08-30T05:29:33;12.30;99.90
54264;DHT22;40178;53.042;6.406;2023-08-30T05:31:58;12.40;99.90
54264;DHT22;40178;53.042;6.406;2023-08-30T05:34:24;12.40;99.90
54264;DHT22;40178;53.042;6.406;2023-08-30T05:36:52;12.40;99.90
54264;DHT22;40178;53.042;6.406;2023-08-30T05:39:18;12.50;99.90
54264;DHT22;40178;53.042;6.406;2023-08-30T05:41:44;12.50;99.90
54264;DHT22;40178;53.042;6.406;2023-08-30T05:44:09;12.50;99.90
54264;DHT22;40178;53.042;6.406;2023-08-30T05:46:35;12.60;99.90
54264;DHT22;40178;53.042;6.406;2023-08-30T05:49:00;12.60;99.90
54264;DHT22;40178;53.042;6.406;2023-08-30T05:51:28;12.60;99.90
54264;DHT22;40178;53.042;6.406;2023-08-30T05:53:54;12.70;99.90
54264;DHT22;40178;53.042;6.406;2023-08-30T05:56:19;12.70;99.90
54264;DHT22;40178;53.042;6.406;2023-08-30T05:58:45;12.80;99.90
54264;DHT22;40178;53.042;6.406;2023-08-30T06:01:11;12.80;99.90
54264;DHT22;40178;53.042;6.406;2023-08-30T06:03:36;12.80;99.90
54264;DHT22;40178;53.042;6.406;2023-08-30T06:06:02;12.90;99.90
54264;DHT22;40178;53.042;6.406;2023-08-30T06:08:28;12.90;99.90
54264;DHT22;40178;53.042;6.406;2023-08-30T06:10:54;12.90;99.90
54264;DHT22;40178;53.042;6.406;2023-08-30T06:13:19;12.90;99.90
54264;DHT22;40178;53.042;6.406;2023-08-30T06:15:49;12.90;99.90
54264;DHT22;40178;53.042;6.406;2023-08-30T06:18:15;13.00;99.90
54264;DHT22;40178;53.042;6.406;2023-08-30T06:20:40;13.00;99.90
54264;DHT22;40178;53.042;6.406;2023-08-30T06:23:07;13.00;99.90
54264;DHT22;40178;53.042;6.406;2023-08-30T06:25:32;13.10;99.90
54264;DHT22;40178;53.042;6.406;2023-08-30T06:27:59;13.10;99.90
54264;DHT22;40178;53.042;6.406;2023-08-30T06:30:27;13.20;99.90
54264;DHT22;40178;53.042;6.406;2023-08-30T06:32:52;13.10;99.90
54264;DHT22;40178;53.042;6.406;2023-08-30T06:35:18;13.30;99.90
54264;DHT22;40178;53.042;6.406;2023-08-30T06:37:43;13.10;99.90
54264;DHT22;40178;53.042;6.406;2023-08-30T06:40:09;13.20;99.90
54264;DHT22;40178;53.042;6.406;2023-08-30T06:42:35;13.20;99.90
54264;DHT22;40178;53.042;6.406;2023-08-30T06:45:01;13.20;99.90
54264;DHT22;40178;53.042;6.406;2023-08-30T06:47:28;13.20;99.90
54264;DHT22;40178;53.042;6.406;2023-08-30T06:49:53;13.20;99.90
54264;DHT22;40178;53.042;6.406;2023-08-30T06:52:19;13.20;99.90
54264;DHT22;40178;53.042;6.406;2023-08-30T06:54:45;13.30;99.90
54264;DHT22;40178;53.042;6.406;2023-08-30T06:57:10;13.40;99.90
54264;DHT22;40178;53.042;6.406;2023-08-30T06:59:36;13.50;99.90
54264;DHT22;40178;53.042;6.406;2023-08-30T07:02:02;13.50;99.90
54264;DHT22;40178;53.042;6.406;2023-08-30T07:04:28;13.60;99.90
54264;DHT22;40178;53.042;6.406;2023-08-30T07:06:54;13.60;99.90
54264;DHT22;40178;53.042;6.406;2023-08-30T07:09:19;13.70;99.90
54264;DHT22;40178;53.042;6.406;2023-08-30T07:11:45;13.80;99.90
54264;DHT22;40178;53.042;6.406;2023-08-30T07:14:11;13.90;99.90
54264;DHT22;40178;53.042;6.406;2023-08-30T07:16:38;14.00;99.90
54264;DHT22;40178;53.042;6.406;2023-08-30T07:19:03;14.10;99.90
54264;DHT22;40178;53.042;6.406;2023-08-30T07:21:29;14.20;99.90
54264;DHT22;40178;53.042;6.406;2023-08-30T07:23:55;14.20;99.90
54264;DHT22;40178;53.042;6.406;2023-08-30T07:26:20;14.40;99.90
54264;DHT22;40178;53.042;6.406;2023-08-30T07:28:46;14.40;99.90
54264;DHT22;40178;53.042;6.406;2023-08-30T07:31:12;14.50;99.90
54264;DHT22;40178;53.042;6.406;2023-08-30T07:33:44;14.70;99.90
54264;DHT22;40178;53.042;6.406;2023-08-30T07:36:09;14.90;99.90
54264;DHT22;40178;53.042;6.406;2023-08-30T07:38:35;15.10;99.90
54264;DHT22;40178;53.042;6.406;2023-08-30T07:41:01;15.30;99.90
54264;DHT22;40178;53.042;6.406;2023-08-30T07:43:27;15.50;99.90
54264;DHT22;40178;53.042;6.406;2023-08-30T07:45:53;15.50;99.90
54264;DHT22;40178;53.042;6.406;2023-08-30T07:48:18;15.40;99.90
54264;DHT22;40178;53.042;6.406;2023-08-30T07:50:44;15.60;99.90
54264;DHT22;40178;53.042;6.406;2023-08-30T07:53:10;15.50;99.90
54264;DHT22;40178;53.042;6.406;2023-08-30T07:55:36;15.50;99.90
54264;DHT22;40178;53.042;6.406;2023-08-30T07:58:02;15.60;99.90
54264;DHT22;40178;53.042;6.406;2023-08-30T08:00:29;15.60;99.90
54264;DHT22;40178;53.042;6.406;2023-08-30T08:02:54;15.60;99.90
54264;DHT22;40178;53.042;6.406;2023-08-30T08:05:20;15.60;99.40
54264;DHT22;40178;53.042;6.406;2023-08-30T08:07:50;15.70;99.90
54264;DHT22;40178;53.042;6.406;2023-08-30T08:10:15;15.70;99.90
54264;DHT22;40178;53.042;6.406;2023-08-30T08:12:41;15.80;99.90
54264;DHT22;40178;53.042;6.406;2023-08-30T08:15:06;15.90;99.90
54264;DHT22;40178;53.042;6.406;2023-08-30T08:17:32;15.80;99.90
54264;DHT22;40178;53.042;6.406;2023-08-30T08:19:58;15.70;99.90
54264;DHT22;40178;53.042;6.406;2023-08-30T08:22:23;15.80;99.90
54264;DHT22;40178;53.042;6.406;2023-08-30T08:24:50;15.80;99.90
54264;DHT22;40178;53.042;6.406;2023-08-30T08:27:17;15.80;99.90
54264;DHT22;40178;53.042;6.406;2023-08-30T08:29:42;15.90;99.90
54264;DHT22;40178;53.042;6.406;2023-08-30T08:32:08;16.00;99.90
54264;DHT22;40178;53.042;6.406;2023-08-30T08:34:34;16.00;99.90
54264;DHT22;40178;53.042;6.406;2023-08-30T08:36:59;16.00;99.90
54264;DHT22;40178;53.042;6.406;2023-08-30T08:39:25;16.00;99.90
54264;DHT22;40178;53.042;6.406;2023-08-30T08:41:51;16.20;98.70
54264;DHT22;40178;53.042;6.406;2023-08-30T08:44:18;16.10;93.30
54264;DHT22;40178;53.042;6.406;2023-08-30T08:46:46;16.00;94.70
54264;DHT22;40178;53.042;6.406;2023-08-30T08:49:14;15.90;94.60
54264;DHT22;40178;53.042;6.406;2023-08-30T08:51:41;15.80;92.20
54264;DHT22;40178;53.042;6.406;2023-08-30T08:54:08;15.80;95.00
54264;DHT22;40178;53.042;6.406;2023-08-30T08:56:34;15.70;94.10
54264;DHT22;40178;53.042;6.406;2023-08-30T08:59:00;15.60;95.60
54264;DHT22;40178;53.042;6.406;2023-08-30T09:01:27;15.60;96.40
54264;DHT22;40178;53.042;6.406;2023-08-30T09:03:52;15.60;97.60
54264;DHT22;40178;53.042;6.406;2023-08-30T09:06:18;15.60;98.60
54264;DHT22;40178;53.042;6.406;2023-08-30T09:08:44;15.60;99.10
54264;DHT22;40178;53.042;6.406;2023-08-30T09:11:10;15.60;99.20
54264;DHT22;40178;53.042;6.406;2023-08-30T09:13:36;15.60;99.90
54264;DHT22;40178;53.042;6.406;2023-08-30T09:16:01;15.70;99.40
54264;DHT22;40178;53.042;6.406;2023-08-30T09:18:30;15.50;98.80
54264;DHT22;40178;53.042;6.406;2023-08-30T09:21:06;15.60;99.30
54264;DHT22;40178;53.042;6.406;2023-08-30T09:23:32;15.60;99.90
54264;DHT22;40178;53.042;6.406;2023-08-30T09:25:59;15.50;99.50
54264;DHT22;40178;53.042;6.406;2023-08-30T09:28:24;15.60;98.90
54264;DHT22;40178;53.042;6.406;2023-08-30T09:30:51;15.60;98.40
54264;DHT22;40178;53.042;6.406;2023-08-30T09:33:29;15.80;99.90
54264;DHT22;40178;53.042;6.406;2023-08-30T09:35:55;15.70;99.90
54264;DHT22;40178;53.042;6.406;2023-08-30T09:38:21;15.80;99.90
54264;DHT22;40178;53.042;6.406;2023-08-30T09:40:47;15.80;99.90
54264;DHT22;40178;53.042;6.406;2023-08-30T09:43:13;15.90;99.90
54264;DHT22;40178;53.042;6.406;2023-08-30T09:45:40;16.00;99.90
54264;DHT22;40178;53.042;6.406;2023-08-30T09:48:07;16.00;99.90
54264;DHT22;40178;53.042;6.406;2023-08-30T09:50:36;16.00;99.80
54264;DHT22;40178;53.042;6.406;2023-08-30T09:53:07;16.00;99.90
54264;DHT22;40178;53.042;6.406;2023-08-30T09:55:35;16.00;99.70
54264;DHT22;40178;53.042;6.406;2023-08-30T09:58:04;15.90;99.90
54264;DHT22;40178;53.042;6.406;2023-08-30T10:00:31;15.70;99.90
54264;DHT22;40178;53.042;6.406;2023-08-30T10:02:58;15.70;99.90
54264;DHT22;40178;53.042;6.406;2023-08-30T10:05:24;15.60;99.90
54264;DHT22;40178;53.042;6.406;2023-08-30T10:07:53;15.70;99.90
54264;DHT22;40178;53.042;6.406;2023-08-30T10:10:20;15.70;99.90
54264;DHT22;40178;53.042;6.406;2023-08-30T10:12:46;15.80;99.90
54264;DHT22;40178;53.042;6.406;2023-08-30T10:15:12;15.90;99.90
54264;DHT22;40178;53.042;6.406;2023-08-30T10:17:38;16.10;99.90
54264;DHT22;40178;53.042;6.406;2023-08-30T10:20:07;16.30;99.90
54264;DHT22;40178;53.042;6.406;2023-08-30T10:22:36;16.50;99.90
54264;DHT22;40178;53.042;6.406;2023-08-30T10:25:06;16.60;99.90
54264;DHT22;40178;53.042;6.406;2023-08-30T10:27:34;16.70;99.90
54264;DHT22;40178;53.042;6.406;2023-08-30T10:30:04;16.90;99.90
54264;DHT22;40178;53.042;6.406;2023-08-30T10:32:32;16.80;97.80
54264;DHT22;40178;53.042;6.406;2023-08-30T10:35:01;16.90;99.90
54264;DHT22;40178;53.042;6.406;2023-08-30T10:37:29;16.80;99.60
54264;DHT22;40178;53.042;6.406;2023-08-30T10:39:59;16.80;99.80
54264;DHT22;40178;53.042;6.406;2023-08-30T10:42:28;16.80;97.20
54264;DHT22;40178;53.042;6.406;2023-08-30T10:45:01;16.80;98.80
54264;DHT22;40178;53.042;6.406;2023-08-30T10:47:28;16.90;98.30
54264;DHT22;40178;53.042;6.406;2023-08-30T10:50:14;17.00;96.00
54264;DHT22;40178;53.042;6.406;2023-08-30T10:52:40;16.90;96.30
54264;DHT22;40178;53.042;6.406;2023-08-30T10:55:14;16.80;92.20
54264;DHT22;40178;53.042;6.406;2023-08-30T10:57:44;16.60;96.50
54264;DHT22;40178;53.042;6.406;2023-08-30T11:00:22;16.70;99.00
54264;DHT22;40178;53.042;6.406;2023-08-30T11:02:49;16.90;96.90
54264;DHT22;40178;53.042;6.406;2023-08-30T11:05:16;17.00;96.60
54264;DHT22;40178;53.042;6.406;2023-08-30T11:07:43;17.30;99.10
54264;DHT22;40178;53.042;6.406;2023-08-30T11:10:09;17.50;89.70
54264;DHT22;40178;53.042;6.406;2023-08-30T11:12:34;17.50;92.90
54264;DHT22;40178;53.042;6.406;2023-08-30T11:15:02;17.80;95.00
54264;DHT22;40178;53.042;6.406;2023-08-30T11:17:28;17.70;86.00
54264;DHT22;40178;53.042;6.406;2023-08-30T11:19:58;17.80;91.10
54264;DHT22;40178;53.042;6.406;2023-08-30T11:22:30;17.70;91.40
54264;DHT22;40178;53.042;6.406;2023-08-30T11:24:55;17.60;92.10
54264;DHT22;40178;53.042;6.406;2023-08-30T11:27:21;17.80;93.70
54264;DHT22;40178;53.042;6.406;2023-08-30T11:29:47;17.90;90.40
54264;DHT22;40178;53.042;6.406;2023-08-30T11:32:12;17.80;87.60
54264;DHT22;40178;53.042;6.406;2023-08-30T11:34:38;17.90;84.60
54264;DHT22;40178;53.042;6.406;2023-08-30T11:37:04;17.80;66.40
54264;DHT22;40178;53.042;6.406;2023-08-30T11:39:29;17.80;83.10
54264;DHT22;40178;53.042;6.406;2023-08-30T11:41:56;17.70;84.40
54264;DHT22;40178;53.042;6.406;2023-08-30T11:44:28;17.50;91.00
54264;DHT22;40178;53.042;6.406;2023-08-30T11:47:00;17.50;90.90
54264;DHT22;40178;53.042;6.406;2023-08-30T11:49:29;17.20;84.30
54264;DHT22;40178;53.042;6.406;2023-08-30T11:51:55;17.10;90.20
54264;DHT22;40178;53.042;6.406;2023-08-30T11:54:24;17.10;94.80
54264;DHT22;40178;53.042;6.406;2023-08-30T11:56:50;16.80;92.90
54264;DHT22;40178;53.042;6.406;2023-08-30T11:59:20;16.70;95.10
54264;DHT22;40178;53.042;6.406;2023-08-30T12:01:46;16.50;97.20
54264;DHT22;40178;53.042;6.406;2023-08-30T12:04:12;16.50;98.60
54264;DHT22;40178;53.042;6.406;2023-08-30T12:06:38;16.40;98.00
54264;DHT22;40178;53.042;6.406;2023-08-30T12:09:03;16.40;98.40
54264;DHT22;40178;53.042;6.406;2023-08-30T12:11:32;16.20;99.90
54264;DHT22;40178;53.042;6.406;2023-08-30T12:14:04;16.10;99.90
54264;DHT22;40178;53.042;6.406;2023-08-30T12:16:30;16.00;99.90
54264;DHT22;40178;53.042;6.406;2023-08-30T12:19:07;16.00;99.90
54264;DHT22;40178;53.042;6.406;2023-08-30T12:21:39;16.00;99.90
54264;DHT22;40178;53.042;6.406;2023-08-30T12:24:06;16.00;99.90
54264;DHT22;40178;53.042;6.406;2023-08-30T12:26:32;15.90;99.90
54264;DHT22;40178;53.042;6.406;2023-08-30T12:29:00;15.80;99.90
54264;DHT22;40178;53.042;6.406;2023-08-30T12:31:26;15.80;99.90
54264;DHT22;40178;53.042;6.406;2023-08-30T12:33:54;15.80;99.90
54264;DHT22;40178;53.042;6.406;2023-08-30T12:36:20;15.70;99.90
54264;DHT22;40178;53.042;6.406;2023-08-30T12:38:45;15.70;99.90
54264;DHT22;40178;53.042;6.406;2023-08-30T12:41:12;15.70;99.90
54264;DHT22;40178;53.042;6.406;2023-08-30T12:43:37;15.70;99.90
54264;DHT22;40178;53.042;6.406;2023-08-30T12:46:03;15.60;99.90
54264;DHT22;40178;53.042;6.406;2023-08-30T12:48:29;15.50;99.90
54264;DHT22;40178;53.042;6.406;2023-08-30T12:50:55;15.50;99.90
54264;DHT22;40178;53.042;6.406;2023-08-30T12:53:21;15.60;99.90
54264;DHT22;40178;53.042;6.406;2023-08-30T12:55:47;15.40;99.90
54264;DHT22;40178;53.042;6.406;2023-08-30T12:58:12;15.30;99.90
54264;DHT22;40178;53.042;6.406;2023-08-30T13:00:39;15.30;99.90
54264;DHT22;40178;53.042;6.406;2023-08-30T13:03:05;15.30;99.90
54264;DHT22;40178;53.042;6.406;2023-08-30T13:05:31;15.30;99.90
54264;DHT22;40178;53.042;6.406;2023-08-30T13:07:58;15.50;99.90
54264;DHT22;40178;53.042;6.406;2023-08-30T13:10:24;15.40;99.90
54264;DHT22;40178;53.042;6.406;2023-08-30T13:12:49;15.40;99.90
54264;DHT22;40178;53.042;6.406;2023-08-30T13:15:15;15.50;99.90
54264;DHT22;40178;53.042;6.406;2023-08-30T13:17:41;15.40;99.90
54264;DHT22;40178;53.042;6.406;2023-08-30T13:20:07;15.40;99.90
54264;DHT22;40178;53.042;6.406;2023-08-30T13:22:32;15.20;99.90
54264;DHT22;40178;53.042;6.406;2023-08-30T13:24:58;15.20;99.90
54264;DHT22;40178;53.042;6.406;2023-08-30T13:27:24;15.20;99.90
54264;DHT22;40178;53.042;6.406;2023-08-30T13:29:49;15.20;99.90
54264;DHT22;40178;53.042;6.406;2023-08-30T13:32:15;15.20;99.90
54264;DHT22;40178;53.042;6.406;2023-08-30T13:34:41;15.20;99.90
54264;DHT22;40178;53.042;6.406;2023-08-30T13:37:11;15.30;99.90
54264;DHT22;40178;53.042;6.406;2023-08-30T13:39:37;15.20;99.90
54264;DHT22;40178;53.042;6.406;2023-08-30T13:42:03;15.20;99.90
54264;DHT22;40178;53.042;6.406;2023-08-30T13:44:28;15.30;99.90
54264;DHT22;40178;53.042;6.406;2023-08-30T13:46:54;15.40;99.90
54264;DHT22;40178;53.042;6.406;2023-08-30T13:49:20;15.40;99.90
54264;DHT22;40178;53.042;6.406;2023-08-30T13:51:46;15.60;99.90
54264;DHT22;40178;53.042;6.406;2023-08-30T13:54:11;15.70;99.90
54264;DHT22;40178;53.042;6.406;2023-08-30T13:56:37;15.70;99.90
54264;DHT22;40178;53.042;6.406;2023-08-30T13:59:07;15.70;99.90
54264;DHT22;40178;53.042;6.406;2023-08-30T14:01:32;15.90;99.90
54264;DHT22;40178;53.042;6.406;2023-08-30T14:03:58;15.90;99.90
54264;DHT22;40178;53.042;6.406;2023-08-30T14:06:24;16.00;99.90
54264;DHT22;40178;53.042;6.406;2023-08-30T14:08:49;16.10;99.90
54264;DHT22;40178;53.042;6.406;2023-08-30T14:11:15;16.10;99.90
54264;DHT22;40178;53.042;6.406;2023-08-30T14:13:41;16.20;99.90
54264;DHT22;40178;53.042;6.406;2023-08-30T14:16:07;16.30;99.90
54264;DHT22;40178;53.042;6.406;2023-08-30T14:18:32;16.10;99.90
54264;DHT22;40178;53.042;6.406;2023-08-30T14:20:59;16.10;99.90
54264;DHT22;40178;53.042;6.406;2023-08-30T14:23:25;16.20;99.90
54264;DHT22;40178;53.042;6.406;2023-08-30T14:25:59;16.20;99.90
54264;DHT22;40178;53.042;6.406;2023-08-30T14:28:25;16.20;99.90
54264;DHT22;40178;53.042;6.406;2023-08-30T14:30:51;16.20;99.90
54264;DHT22;40178;53.042;6.406;2023-08-30T14:33:17;16.20;99.90
54264;DHT22;40178;53.042;6.406;2023-08-30T14:35:43;16.20;99.90
54264;DHT22;40178;53.042;6.406;2023-08-30T14:38:08;16.10;99.90
54264;DHT22;40178;53.042;6.406;2023-08-30T14:40:34;16.10;99.90
54264;DHT22;40178;53.042;6.406;2023-08-30T14:43:00;15.90;99.90
54264;DHT22;40178;53.042;6.406;2023-08-30T14:45:25;16.10;99.90
54264;DHT22;40178;53.042;6.406;2023-08-30T14:47:51;16.20;99.90
54264;DHT22;40178;53.042;6.406;2023-08-30T14:50:17;16.30;99.90
54264;DHT22;40178;53.042;6.406;2023-08-30T14:52:42;16.70;99.90
54264;DHT22;40178;53.042;6.406;2023-08-30T14:55:08;17.20;99.90
54264;DHT22;40178;53.042;6.406;2023-08-30T14:57:34;17.40;99.90
54264;DHT22;40178;53.042;6.406;2023-08-30T14:59:59;17.50;99.90
54264;DHT22;40178;53.042;6.406;2023-08-30T15:02:25;17.50;99.90
54264;DHT22;40178;53.042;6.406;2023-08-30T15:04:50;17.70;99.90
54264;DHT22;40178;53.042;6.406;2023-08-30T15:07:16;17.50;99.90
54264;DHT22;40178;53.042;6.406;2023-08-30T15:09:42;17.50;99.90
54264;DHT22;40178;53.042;6.406;2023-08-30T15:12:07;17.30;99.90
54264;DHT22;40178;53.042;6.406;2023-08-30T15:14:34;17.40;99.90
54264;DHT22;40178;53.042;6.406;2023-08-30T15:17:00;17.40;99.90
54264;DHT22;40178;53.042;6.406;2023-08-30T15:19:26;17.80;99.90
54264;DHT22;40178;53.042;6.406;2023-08-30T15:21:51;18.30;99.90
54264;DHT22;40178;53.042;6.406;2023-08-30T15:24:17;18.80;99.90
54264;DHT22;40178;53.042;6.406;2023-08-30T15:26:43;19.10;99.90
54264;DHT22;40178;53.042;6.406;2023-08-30T15:29:09;19.20;99.90
54264;DHT22;40178;53.042;6.406;2023-08-30T15:31:34;18.80;99.90